Relevés horaires Payerne (Suisse)


Relevés horaires à Payerne - Mercredi 01 Déc. 2004
Heure UTC1 Température [°C] Vent [km/h] Hum. [%] Pres.4 [hPa] Visi. [Km] Nébu. [octa] Préc.5 [mm] Cond.
2m. Res. Ros. Dir.2 Vit. Moy. Raf.3
23:00 0.9 0.9 0.0 SE 3.7 -- -- 94 1012.7 -- -- -- --
22:00 1.2 1.2 0.4 ESE 3.7 -- -- 94 1012.4 -- -- -- --
21:00 1.7 0.1 0.7 SE 5.6 -- -- 93 1012.2(0.8/3h) 4 8/8 -- Brouillard
20:00 1.9 1.9 0.6 SE 3.7 -- -- 91 1012 -- -- -- --
19:00 2.4 2.4 1.1 ENE 3.7 -- -- 91 1011.5 -- -- -- --
18:00 2.5 2.5 1.1 NO 1.9 -- -- 90 1011.2(0.9/3h) 4 8/8 -- --
17:00 2.3 2.3 1.2 NNO 0.0 -- -- 92 1010.6 -- -- -- --
16:00 2.3 2.3 1.1 N 3.7 -- -- 92 1010.5 -- -- -- --
15:00 2.4 2.4 1.0 NNO 3.7 -- -- 90 1010.2(-0.2/3h) 4.5 7/8 -- Brouillard
14:00 2.5 1 0.8 NNO 5.6 -- -- 89 1010 -- -- -- --
13:00 2.0 2.0 0.8 E 1.9 -- -- 92 1010.3 -- -- -- --
12:00 2.0 2.0 0.9 O 1.9 -- -- 92 1010.6(-0.7/3h) 3.5 8/8 4/6h
Brouillard
11:00 0.6 0.6 0.2 NNO 0.0 -- -- 97 1011.3 -- -- -- --
10:00 0.1 0.1 -0.1 NNO 0.0 -- -- 99 1011.8 -- -- -- --
09:00 0.3 0.3 0.0 ENE 1.9 -- -- 98 1011.7(0.4/3h) 0.9 -- -- Neige modérée continue
08:00 0.7 0.7 0.4 NNO 0.0 -- -- 98 1011.8 -- -- -- --
07:00 1.6 -0 0.8 SSO 5.6 -- -- 94 1011.5 -- -- -- --
06:00 0.9 0.9 0.4 S 1.9 -- -- 96 1011.1(0.3/3h) 3.5 8/8 0/0h
Brouillard
05:00 1.7 1.7 1.0 ESE 1.9 -- -- 95 1011 -- -- -- --
04:00 1.9 1.9 1.2 S 1.9 -- -- 95 1010.6 -- -- -- --
03:00 1.9 0.3 1.0 S 5.6 -- -- 94 1010.6(-0.4/3h) 5 8/8 -- Brouillard
02:00 1.4 1.4 1.0 S 1.9 -- -- 97 1010.7 -- -- -- --
01:00 2.1 2.1 1.2 SE 1.9 -- -- 94 1010.6 -- -- -- --
00:00 2.1 2.1 1.0 NNE 3.7 -- -- 92 1011(-0.1/3h) 5 8/8 0/0h
Brouillard

1 Coordinated Universal Time. Actuellement il est 21:00 locale et 19:00 UTC.

2 Le vent souffle depuis la direction indiquée vers la direction oposée.

3 Les rafales max. sont disponible 40 min après l'heure du relevé.

4 Pour les stations d'altitude (plus de 600m) le géopotentiel du niveau le plus proche de la pression obligatoire est indiqué.

5 Les stations disposant d'un diffuseur peuvent indiquer "trace". Cela signifie que des précipitations ont touchés le sol mais que la quantité est inférieure à 0.1 mm.

Copyright

Les données affichées sur cette page sont la propriété exclusive de Météo Suisse.

Récapitulatif de la journée
Température [°C] Vent [km/h] Ensoleillement4 [h] Precipitations totale5 [mm] Pression [Hpa]
Min1 Max.2 Moy.3 Max. Min Max.
0.9 -- 0 -- 0 h 0 min 0 1010.0 1012.7

1 Température minimale relevée entre 18:00 UTC la veille et 18:00 UTC le jour donné.

2 Température maximale relevée entre 06:00 UTC le jour donné et 06:00 UTC le lendemain.

3 Vent moyen de la journée basé sur les relevés horaires.

4 Ensoleillement en heures relevé entre 06:00 UTC la veille et 06:00 UTC le jour donné.

5 Précipitations totales tombées entre 06:00 UTC la jour donné et 06:00 UTC le lendemain.

Graphiques horaires